Historique des mesures à Cassis (13260), France
Quotidien Résumé Avril 5, 2018 Unités:  Métrique    US   Métrique/US
« Précédent (Jour)
Suivant (Jour) »
Quotidien Hebdomadaire Mensuel Annuel Période au choix
  Maximum: Minimum: Moyenne:
Température: TemperatureC °C 11.3 °C 14.1 °C
Point de rosée: DewpointC °C 6.2 °C 7.4 °C
Humidité: Humidity % 49 % 61 %
Vitesse du vent: 0 km/h 0 km/h 14.3 km/h
Rafales: 0 km/h - -
Vent:- - West
Pression: PressurehPa hPa 1010.0 hPa -
Précipitations: 0.0 mm    
Historical Graphs
 
 
Mesures pour : Avril 5, 2018
Heure Temperature Point de rosée Pression Vent Vitesse du vent Rafales Humidité Pluie (par heure) Conditions
TemperatureC °C DewpointC °C PressurehPa hPa Calm     Humidity % HourlyPrecipMM mm SoftwareType W/m2
00:12 13.2 °C 9.6 °C 1010.0 hPa North 4.2 km/h 9.3 km/h 79 % 0.0 mm open2300-1.11 W/m2
01:12 12.9 °C 9.3 °C 1010.0 hPa Calm     79 % 0.0 mm open2300-1.11 W/m2
02:12 12.2 °C 8.7 °C 1010.4 hPa NW 9.3 km/h 14 km/h 79 % 0.0 mm open2300-1.11 W/m2
03:12 11.9 °C 8.6 °C 1010.4 hPa Calm   7.6 km/h 80 % 0.0 mm open2300-1.11 W/m2
04:12 11.3 °C 8.0 °C 1010.7 hPa Calm   2.3 km/h 80 % 0.0 mm open2300-1.11 W/m2
05:11 11.9 °C 8.6 °C 1011.1 hPa WNW 9.8 km/h 30.1 km/h 80 % 0.0 mm open2300-1.11 W/m2
06:11 13.0 °C 8.1 °C 1011.4 hPa WNW 33.2 km/h 33.2 km/h 72 % 0.0 mm open2300-1.11 W/m2
07:11 12.8 °C 7.5 °C 1011.7 hPa NNW 23 km/h 33.6 km/h 70 % 0.0 mm open2300-1.11 W/m2
08:11 12.9 °C 7.4 °C 1011.7 hPa North 13.2 km/h 31.4 km/h 69 % 0.0 mm open2300-1.11 W/m2
09:11 12.9 °C 6.2 °C 1012.1 hPa WNW 28.5 km/h 44.6 km/h 64 % 0.0 mm open2300-1.11 W/m2
10:10 13.4 °C 6.5 °C 1012.8 hPa NW 41.2 km/h 41.2 km/h 63 % 0.0 mm open2300-1.11 W/m2
11:10 15.5 °C 7.0 °C 1013.4 hPa NNW 13.2 km/h 44.1 km/h 57 % 0.0 mm open2300-1.11 W/m2
12:10 17.1 °C 7.4 °C 1014.1 hPa NW 39.4 km/h 39.9 km/h 53 % 0.0 mm open2300-1.11 W/m2
13:10 17.6 °C 7.1 °C 1013.4 hPa West 6.4 km/h 42.2 km/h 50 % 0.0 mm open2300-1.11 W/m2
14:10 18.2 °C 7.3 °C 1013.1 hPa West 17.9 km/h 34.1 km/h 49 % 0.0 mm open2300-1.11 W/m2
15:10 18.5 °C 7.9 °C 1012.8 hPa West 8 km/h 44.6 km/h 50 % 0.0 mm open2300-1.11 W/m2
16:10 18.4 °C 7.8 °C 1012.8 hPa NNW 9.8 km/h 46.8 km/h 50 % 0.0 mm open2300-1.11 W/m2
17:10 18.0 °C 7.7 °C 1012.8 hPa WNW 33.6 km/h 43.5 km/h 51 % 0.0 mm open2300-1.11 W/m2
18:10 17.4 °C 7.4 °C 1013.1 hPa NNW 27.7 km/h 38.3 km/h 52 % 0.0 mm open2300-1.11 W/m2
19:10 16.3 °C 7.8 °C 1012.8 hPa WNW 29 km/h 29 km/h 57 % 0.0 mm open2300-1.11 W/m2
20:12 14.9 °C 7.4 °C 1013.1 hPa WNW 4.2 km/h 19.2 km/h 61 % 0.0 mm open2300-1.11 W/m2
21:12 14.4 °C 7.4 °C 1013.1 hPa NNW 8 km/h 20.3 km/h 63 % 0.0 mm open2300-1.11 W/m2
22:12 14.4 °C 7.4 °C 1013.8 hPa Calm   4.7 km/h 63 % 0.0 mm open2300-1.11 W/m2
23:12 13.9 °C 6.7 °C 1013.8 hPa Calm   1.8 km/h 62 % 0.0 mm open2300-1.11 W/m2
Observations météo à CASSIS
WU-History script by Weather Underground - 1 mb